createdAt,value
2022-09-06T00:01:27.064Z,5.18
2022-09-06T00:04:15.634Z,5.13
2022-09-06T00:07:06.036Z,5.00
2022-09-06T00:09:47.876Z,5.18
2022-09-06T00:12:43.813Z,5.93
2022-09-06T00:15:32.120Z,4.63
2022-09-06T00:18:21.896Z,4.70
2022-09-06T00:21:11.018Z,4.63
2022-09-06T00:24:08.812Z,4.50
2022-09-06T00:26:57.042Z,4.85
2022-09-06T00:29:45.809Z,4.25
2022-09-06T00:32:33.976Z,4.40
2022-09-06T00:35:15.805Z,3.88
2022-09-06T00:38:06.119Z,3.78
2022-09-06T00:40:49.872Z,3.75
2022-09-06T00:43:38.099Z,3.20
2022-09-06T00:46:23.868Z,3.90
2022-09-06T00:49:23.907Z,3.35
2022-09-06T00:52:22.808Z,4.22
2022-09-06T00:55:12.194Z,3.83
2022-09-06T00:58:08.841Z,4.25
2022-09-06T01:00:57.053Z,3.75
2022-09-06T01:03:45.831Z,4.07
2022-09-06T01:06:42.015Z,4.50
2022-09-06T01:09:42.916Z,4.43
2022-09-06T01:12:41.987Z,4.13
2022-09-06T01:15:35.902Z,4.00
2022-09-06T01:18:37.988Z,4.10
2022-09-06T01:21:36.837Z,3.90
2022-09-06T01:24:59.284Z,4.32
2022-09-06T01:28:17.851Z,3.97
2022-09-06T01:31:19.140Z,4.05
2022-09-06T01:34:25.817Z,4.40
2022-09-06T01:37:20.242Z,4.28
2022-09-06T01:40:01.889Z,4.05
2022-09-06T01:42:53.347Z,4.03
2022-09-06T01:45:45.853Z,4.03
2022-09-06T01:48:58.902Z,3.92
2022-09-06T01:51:55.820Z,4.15
2022-09-06T01:55:05.908Z,4.40
2022-09-06T01:58:06.028Z,4.30
2022-09-06T02:00:54.937Z,4.30
2022-09-06T02:03:48.137Z,4.18
2022-09-06T02:06:34.845Z,4.57
2022-09-06T02:09:28.034Z,4.30
2022-09-06T02:12:11.852Z,4.23
2022-09-06T02:15:00.138Z,4.55
2022-09-06T02:18:01.858Z,4.97
2022-09-06T02:20:56.021Z,4.13
2022-09-06T02:23:47.911Z,4.43
2022-09-06T02:26:40.966Z,4.60
2022-09-06T02:29:31.840Z,4.40
2022-09-06T02:32:25.104Z,3.92
2022-09-06T02:35:12.856Z,4.47
2022-09-06T02:38:01.016Z,4.22
2022-09-06T02:40:42.931Z,4.63
2022-09-06T02:43:31.119Z,5.10
2022-09-06T02:46:19.966Z,5.00
2022-09-06T02:49:14.846Z,5.20
2022-09-06T02:52:04.881Z,5.57
2022-09-06T02:54:47.086Z,4.93
2022-09-06T02:57:41.972Z,5.35
2022-09-06T03:00:30.295Z,5.63
2022-09-06T03:03:18.891Z,5.45
2022-09-06T03:06:07.106Z,6.28
2022-09-06T03:08:56.921Z,6.03
2022-09-06T03:11:38.827Z,5.45
2022-09-06T03:14:26.915Z,6.10
2022-09-06T03:17:15.172Z,6.50
2022-09-06T03:19:56.911Z,6.47
2022-09-06T03:22:46.040Z,6.57
2022-09-06T03:25:28.893Z,6.97
2022-09-06T03:28:17.574Z,7.07
2022-09-06T03:30:59.916Z,6.97
2022-09-06T03:33:48.067Z,8.25
2022-09-06T03:36:36.882Z,7.78
2022-09-06T03:39:19.094Z,8.43
2022-09-06T03:42:15.959Z,8.40
2022-09-06T03:45:04.152Z,8.10
2022-09-06T03:47:52.916Z,8.48
2022-09-06T03:50:41.124Z,8.90
2022-09-06T03:53:30.889Z,8.88
2022-09-06T03:56:19.044Z,8.52
2022-09-06T03:59:08.935Z,8.57
2022-09-06T04:01:57.170Z,9.60
2022-09-06T04:04:45.997Z,9.02
2022-09-06T04:07:34.107Z,8.98
2022-09-06T04:10:15.884Z,8.55
2022-09-06T04:13:04.089Z,8.82
2022-09-06T04:15:46.892Z,8.07
2022-09-06T04:18:36.108Z,8.90
2022-09-06T04:21:17.942Z,8.40
2022-09-06T04:24:06.111Z,8.68
2022-09-06T04:26:47.925Z,8.82
2022-09-06T04:29:36.133Z,8.38
2022-09-06T04:32:25.924Z,8.23
2022-09-06T04:35:15.176Z,7.90
2022-09-06T04:38:02.908Z,8.25
2022-09-06T04:40:51.892Z,8.18
2022-09-06T04:43:40.015Z,7.93
2022-09-06T04:46:30.152Z,9.45
2022-09-06T04:49:19.953Z,8.95
2022-09-06T04:52:07.903Z,8.43
2022-09-06T04:54:50.277Z,7.35
2022-09-06T04:57:48.466Z,7.43
2022-09-06T05:00:34.024Z,8.10
2022-09-06T05:03:22.925Z,8.23
2022-09-06T05:06:18.195Z,8.70
2022-09-06T05:09:06.911Z,8.60
2022-09-06T05:11:55.088Z,8.45
2022-09-06T05:14:43.972Z,7.80
2022-09-06T05:17:32.129Z,7.75
2022-09-06T05:20:14.900Z,7.53
2022-09-06T05:23:05.182Z,7.03
2022-09-06T05:25:52.919Z,7.18
2022-09-06T05:28:34.081Z,6.70
2022-09-06T05:31:34.972Z,6.85
2022-09-06T05:34:16.089Z,6.80
2022-09-06T05:37:03.925Z,7.07
2022-09-06T05:39:47.249Z,7.28
2022-09-06T05:42:41.997Z,6.55
2022-09-06T05:45:30.229Z,13.98
2022-09-06T05:48:18.924Z,7.45
2022-09-06T05:51:08.085Z,5.40
2022-09-06T05:53:59.001Z,6.00
2022-09-06T05:56:49.075Z,5.20
2022-09-06T05:59:38.013Z,4.78
2022-09-06T06:02:27.123Z,5.35
2022-09-06T06:05:08.968Z,5.68
2022-09-06T06:07:58.937Z,4.70
2022-09-06T06:10:41.012Z,5.80
2022-09-06T06:13:34.888Z,5.15
2022-09-06T06:16:24.970Z,4.97
2022-09-06T06:19:07.141Z,4.65
2022-09-06T06:21:55.026Z,7.68
2022-09-06T06:24:37.210Z,5.13
2022-09-06T06:27:32.012Z,4.75
2022-09-06T06:30:22.226Z,3.85
2022-09-06T06:33:11.032Z,4.70
2022-09-06T06:36:07.200Z,4.57
2022-09-06T06:38:56.965Z,4.10
2022-09-06T06:41:38.888Z,3.78
2022-09-06T06:44:45.043Z,4.00
2022-09-06T06:47:42.010Z,4.07
2022-09-06T06:50:36.961Z,3.70
2022-09-06T06:53:27.854Z,15.63
2022-09-06T06:56:20.046Z,3.40
2022-09-06T06:59:10.228Z,3.00
2022-09-06T07:01:52.153Z,2.88
2022-09-06T07:04:42.195Z,3.60
2022-09-06T07:07:31.289Z,3.17
2022-09-06T07:10:35.593Z,3.22
2022-09-06T07:13:24.012Z,2.75
2022-09-06T07:16:20.209Z,2.75
2022-09-06T07:22:19.220Z,3.75
2022-09-06T07:25:00.958Z,2.90
2022-09-06T07:27:49.933Z,3.38
2022-09-06T07:30:32.010Z,3.20
2022-09-06T07:33:20.257Z,3.75
2022-09-06T07:36:04.966Z,2.70
2022-09-06T07:39:05.202Z,2.30
2022-09-06T07:41:53.330Z,2.67
2022-09-06T07:44:40.999Z,2.33
2022-09-06T07:53:31.190Z,2.45
2022-09-06T07:56:20.994Z,2.53
2022-09-06T07:59:03.298Z,3.28
2022-09-06T08:01:52.024Z,2.42
2022-09-06T08:04:34.289Z,2.70
2022-09-06T08:07:44.335Z,2.63
2022-09-06T08:10:32.269Z,18.02
2022-09-06T08:13:22.087Z,2.90
2022-09-06T08:16:12.507Z,3.15
2022-09-06T08:19:04.057Z,2.97
2022-09-06T08:21:52.497Z,3.38
2022-09-06T08:24:42.043Z,8.18
2022-09-06T08:27:30.256Z,3.83
2022-09-06T08:30:14.092Z,2.92
2022-09-06T08:33:03.178Z,3.42
2022-09-06T08:35:45.025Z,3.30
2022-09-06T08:38:34.279Z,3.50
2022-09-06T08:41:19.008Z,3.13
2022-09-06T08:47:24.061Z,3.88
2022-09-06T08:50:21.060Z,8.55
2022-09-06T08:53:20.137Z,3.92
2022-09-06T08:56:20.105Z,3.55
2022-09-06T08:59:11.217Z,9.50
2022-09-06T09:02:07.053Z,3.67
2022-09-06T09:04:53.390Z,4.10
2022-09-06T09:07:55.039Z,3.75
2022-09-06T09:10:50.783Z,4.25
2022-09-06T09:13:36.277Z,4.20
2022-09-06T09:16:25.163Z,4.10
2022-09-06T09:19:09.505Z,4.03
2022-09-06T09:21:59.118Z,3.75
2022-09-06T09:24:44.300Z,4.85
2022-09-06T09:27:42.099Z,4.70
2022-09-06T09:33:43.117Z,4.43
2022-09-06T09:36:25.177Z,5.10
2022-09-06T09:39:15.164Z,5.18
2022-09-06T09:42:03.772Z,6.00
2022-09-06T09:44:57.035Z,7.85
2022-09-06T09:47:45.298Z,5.68
2022-09-06T09:50:36.046Z,8.10
2022-09-06T09:53:21.020Z,5.80
2022-09-06T09:56:11.043Z,6.55
2022-09-06T09:58:53.723Z,26.42
2022-09-06T10:01:42.062Z,15.35
2022-09-06T10:04:47.723Z,5.35
2022-09-06T10:07:43.117Z,4.95
2022-09-06T10:10:33.469Z,5.15
2022-09-06T10:13:27.117Z,4.47
2022-09-06T10:16:16.651Z,3.70
2022-09-06T10:19:11.104Z,3.33
2022-09-06T10:21:57.924Z,3.60
2022-09-06T10:24:59.353Z,3.53
2022-09-06T10:28:13.919Z,3.15
2022-09-06T10:31:09.216Z,2.72
2022-09-06T10:34:11.387Z,3.00
2022-09-06T10:36:58.133Z,3.75
2022-09-06T10:39:56.592Z,2.90
2022-09-06T10:42:54.122Z,2.55
2022-09-06T10:45:52.724Z,2.42
2022-09-06T10:48:45.159Z,2.35
2022-09-06T10:51:40.775Z,2.50
2022-09-06T10:54:32.140Z,2.05
2022-09-06T11:00:30.295Z,2.50
2022-09-06T11:06:40.162Z,2.38
2022-09-06T11:09:31.455Z,2.17
2022-09-06T11:12:31.155Z,4.72
2022-09-06T11:15:22.075Z,2.30
2022-09-06T11:18:15.170Z,1.98
2022-09-06T11:21:23.568Z,2.45
2022-09-06T11:24:23.229Z,1.80
2022-09-06T11:27:18.580Z,2.13
2022-09-06T11:30:03.135Z,2.30
2022-09-06T11:32:55.493Z,1.90
2022-09-06T11:35:40.111Z,2.30
2022-09-06T11:38:33.497Z,2.60
2022-09-06T11:41:23.160Z,1.90
2022-09-06T11:44:12.271Z,2.25
2022-09-06T11:47:09.212Z,1.80
2022-09-06T11:50:05.073Z,2.38
2022-09-06T11:53:28.207Z,2.03
2022-09-06T11:56:36.181Z,1.90
2022-09-06T11:59:39.293Z,2.22
2022-09-06T12:02:51.759Z,5.10
2022-09-06T12:05:40.298Z,2.10
2022-09-06T12:08:47.217Z,1.90
2022-09-06T12:11:44.290Z,2.03
2022-09-06T12:14:46.204Z,2.00
2022-09-06T12:17:35.341Z,2.05
2022-09-06T12:20:18.098Z,2.15
2022-09-06T12:23:06.356Z,1.50
2022-09-06T12:26:04.185Z,2.40
2022-09-06T12:28:57.259Z,1.90
2022-09-06T12:31:46.200Z,1.77
2022-09-06T12:34:45.516Z,4.38
2022-09-06T12:37:42.386Z,2.30
2022-09-06T12:40:26.116Z,1.83
2022-09-06T12:43:18.309Z,2.30
2022-09-06T12:46:01.149Z,2.78
2022-09-06T12:51:46.148Z,1.77
2022-09-06T12:54:30.451Z,2.30
2022-09-06T12:57:33.086Z,1.77
2022-09-06T13:00:22.585Z,2.58
2022-09-06T13:03:19.118Z,2.40
2022-09-06T13:06:18.133Z,1.85
2022-09-06T13:09:07.399Z,1.77
2022-09-06T13:11:52.212Z,1.77
2022-09-06T13:14:43.273Z,1.65
2022-09-06T13:17:39.165Z,1.70
2022-09-06T13:20:28.766Z,1.73
2022-09-06T13:23:23.104Z,2.22
2022-09-06T13:26:11.366Z,1.70
2022-09-06T13:29:00.222Z,1.73
2022-09-06T13:31:53.383Z,1.70
2022-09-06T13:34:43.195Z,1.70
2022-09-06T13:37:41.303Z,1.42
2022-09-06T13:41:09.592Z,1.70
2022-09-06T13:43:54.392Z,1.80
2022-09-06T13:46:36.297Z,1.50
2022-09-06T13:49:31.221Z,1.98
2022-09-06T13:52:26.137Z,1.73
2022-09-06T13:55:19.909Z,1.83
2022-09-06T13:58:08.147Z,7.47
2022-09-06T14:00:50.418Z,1.73
2022-09-06T14:03:41.154Z,1.75
2022-09-06T14:06:31.462Z,2.22
2022-09-06T14:09:22.164Z,1.50
2022-09-06T14:12:12.402Z,1.73
2022-09-06T14:14:54.141Z,1.63
2022-09-06T14:17:49.185Z,1.75
2022-09-06T14:20:37.368Z,1.60
2022-09-06T14:23:25.289Z,1.88
2022-09-06T14:26:15.427Z,1.75
2022-09-06T14:29:05.149Z,1.88
2022-09-06T14:31:53.360Z,1.75
2022-09-06T14:34:48.175Z,2.40
2022-09-06T14:37:36.810Z,1.70
2022-09-06T14:40:18.156Z,6.00
2022-09-06T14:43:06.352Z,2.22
2022-09-06T14:45:49.212Z,1.90
2022-09-06T14:51:32.176Z,1.70
2022-09-06T14:54:15.847Z,1.77
2022-09-06T14:57:06.174Z,2.33
2022-09-06T14:59:50.712Z,1.98
2022-09-06T15:02:47.273Z,2.70
2022-09-06T15:05:35.456Z,1.80
2022-09-06T15:08:23.200Z,1.92
2022-09-06T15:11:13.353Z,1.92
2022-09-06T15:14:01.250Z,1.92
2022-09-06T15:16:55.260Z,1.83
2022-09-06T15:19:53.269Z,1.70
2022-09-06T15:22:41.548Z,1.55
2022-09-06T15:25:23.277Z,1.85
2022-09-06T15:28:11.479Z,6.40
2022-09-06T15:30:53.267Z,2.05
2022-09-06T15:33:50.575Z,1.92
2022-09-06T15:36:40.361Z,2.47
2022-09-06T15:39:29.324Z,2.17
2022-09-06T15:42:17.462Z,2.78
2022-09-06T15:44:59.211Z,1.75
2022-09-06T15:47:47.448Z,2.05
2022-09-06T15:50:51.349Z,1.65
2022-09-06T15:53:41.435Z,1.88
2022-09-06T15:56:25.265Z,2.05
2022-09-06T15:59:14.420Z,2.30
2022-09-06T16:01:56.351Z,1.73
2022-09-06T16:04:44.488Z,1.88
2022-09-06T16:07:33.230Z,2.30
2022-09-06T16:10:23.475Z,2.00
2022-09-06T16:13:18.319Z,1.80
2022-09-06T16:16:07.378Z,1.83
2022-09-06T16:18:58.221Z,1.65
2022-09-06T16:21:48.504Z,2.28
2022-09-06T16:24:37.206Z,2.28
2022-09-06T16:27:27.469Z,2.25
2022-09-06T16:30:09.217Z,2.58
2022-09-06T16:32:57.437Z,2.28
2022-09-06T16:35:39.274Z,2.22
2022-09-06T16:38:27.442Z,2.17
2022-09-06T16:41:16.310Z,2.10
2022-09-06T16:44:06.412Z,2.10
2022-09-06T16:46:48.249Z,1.50
2022-09-06T16:49:43.346Z,1.80
2022-09-06T16:52:38.267Z,1.80
2022-09-06T16:55:26.429Z,1.67
2022-09-06T16:58:15.367Z,1.77
2022-09-06T17:01:05.268Z,1.88
2022-09-06T17:03:48.274Z,2.00
2022-09-06T17:06:37.335Z,1.63
2022-09-06T17:09:20.558Z,1.90
2022-09-06T17:12:09.297Z,2.15
2022-09-06T17:14:52.651Z,2.80
2022-09-06T17:17:48.330Z,2.67
2022-09-06T17:20:30.299Z,2.53
2022-09-06T17:23:19.805Z,2.22
2022-09-06T17:26:07.521Z,2.08
2022-09-06T17:28:55.244Z,1.73
2022-09-06T17:31:44.490Z,2.00
2022-09-06T17:34:34.255Z,1.67
2022-09-06T17:37:23.639Z,2.08
2022-09-06T17:40:05.325Z,1.92
2022-09-06T17:42:53.552Z,2.03
2022-09-06T17:45:35.383Z,1.73
2022-09-06T17:48:25.002Z,1.70
2022-09-06T17:51:22.270Z,2.00
2022-09-06T17:54:10.461Z,1.70
2022-09-06T17:56:52.304Z,1.60
2022-09-06T17:59:50.736Z,1.85
2022-09-06T18:02:38.790Z,2.03
2022-09-06T18:05:20.325Z,2.25
2022-09-06T18:08:11.035Z,2.72
2022-09-06T18:10:52.344Z,3.10
2022-09-06T18:13:42.096Z,2.30
2022-09-06T18:16:24.316Z,1.90
2022-09-06T18:19:14.564Z,3.53
2022-09-06T18:21:56.265Z,2.10
2022-09-06T18:24:46.534Z,2.72
2022-09-06T18:27:35.276Z,2.80
2022-09-06T18:30:23.440Z,2.40
2022-09-06T18:33:12.314Z,2.53
2022-09-06T18:36:00.504Z,2.75
2022-09-06T18:38:49.261Z,3.10
2022-09-06T18:41:58.223Z,2.85
2022-09-06T18:44:50.419Z,3.22
2022-09-06T18:47:38.566Z,3.13
2022-09-06T18:50:33.387Z,3.40
2022-09-06T18:53:21.570Z,6.85
2022-09-06T18:56:10.384Z,11.30
2022-09-06T18:58:53.529Z,9.93
2022-09-06T19:01:43.388Z,5.88
2022-09-06T19:04:25.528Z,3.78
2022-09-06T19:07:20.284Z,3.80
2022-09-06T19:10:08.470Z,3.67
2022-09-06T19:12:57.291Z,4.63
2022-09-06T19:15:51.103Z,4.68
2022-09-06T19:18:41.288Z,4.30
2022-09-06T19:21:24.810Z,4.47
2022-09-06T19:24:15.325Z,4.53
2022-09-06T19:27:03.446Z,4.00
2022-09-06T19:29:53.340Z,3.83
2022-09-06T19:32:43.615Z,3.65
2022-09-06T19:35:26.324Z,4.72
2022-09-06T19:38:14.562Z,3.53
2022-09-06T19:40:59.316Z,3.67
2022-09-06T19:43:48.567Z,3.42
2022-09-06T19:46:37.416Z,3.08
2022-09-06T19:49:34.379Z,3.60
2022-09-06T19:52:29.422Z,3.63
2022-09-06T19:55:17.942Z,3.33
2022-09-06T19:58:07.686Z,3.80
2022-09-06T20:00:55.658Z,3.83
2022-09-06T20:03:45.426Z,3.13
2022-09-06T20:06:35.388Z,4.13
2022-09-06T20:09:18.510Z,4.28
2022-09-06T20:12:06.328Z,4.32
2022-09-06T20:14:48.610Z,4.47
2022-09-06T20:17:44.337Z,4.95
2022-09-06T20:20:35.582Z,5.00
2022-09-06T20:23:25.406Z,4.30
2022-09-06T20:26:15.558Z,4.85
2022-09-06T20:29:09.329Z,4.85
2022-09-06T20:31:57.677Z,4.65
2022-09-06T20:34:45.316Z,4.55
2022-09-06T20:37:42.559Z,9.43
2022-09-06T20:40:32.476Z,4.68
2022-09-06T20:43:16.560Z,5.30
2022-09-06T20:46:05.389Z,4.22
2022-09-06T20:48:47.618Z,4.57
2022-09-06T20:51:49.353Z,4.22
2022-09-06T20:54:37.647Z,4.00
2022-09-06T20:57:27.404Z,3.53
2022-09-06T21:00:17.519Z,3.53
2022-09-06T21:03:06.355Z,4.45
2022-09-06T21:05:55.527Z,4.25
2022-09-06T21:08:44.496Z,3.90
2022-09-06T21:11:33.115Z,3.92
2022-09-06T21:14:22.344Z,3.60
2022-09-06T21:17:10.564Z,2.92
2022-09-06T21:19:52.356Z,3.33
2022-09-06T21:22:40.554Z,2.88
2022-09-06T21:25:28.420Z,3.28
2022-09-06T21:28:10.496Z,4.22
2022-09-06T21:31:09.362Z,4.07
2022-09-06T21:33:53.683Z,4.47
2022-09-06T21:36:43.339Z,5.15
2022-09-06T21:39:25.948Z,4.55
2022-09-06T21:42:20.362Z,4.32
2022-09-06T21:45:08.559Z,4.10
2022-09-06T21:47:58.363Z,5.03
2022-09-06T21:50:53.339Z,4.60
2022-09-06T21:53:50.678Z,4.93
2022-09-06T21:56:33.996Z,4.80
2022-09-06T21:59:22.368Z,4.25
2022-09-06T22:02:10.422Z,4.90
2022-09-06T22:04:53.608Z,5.38
2022-09-06T22:07:50.890Z,5.50
2022-09-06T22:10:38.522Z,4.53
2022-09-06T22:13:27.411Z,4.60
2022-09-06T22:16:16.537Z,4.57
2022-09-06T22:19:05.365Z,4.30
2022-09-06T22:21:55.589Z,3.85
2022-09-06T22:24:50.560Z,2.83
2022-09-06T22:27:39.341Z,3.47
2022-09-06T22:30:25.598Z,2.55
2022-09-06T22:33:13.544Z,1.98
2022-09-06T22:35:55.470Z,2.30
2022-09-06T22:38:45.622Z,2.55
2022-09-06T22:41:27.391Z,2.75
2022-09-06T22:44:23.383Z,3.35
2022-09-06T22:47:13.553Z,3.75
2022-09-06T22:50:08.364Z,3.50
2022-09-06T22:52:56.599Z,3.80
2022-09-06T22:55:39.368Z,4.05
2022-09-06T22:58:34.450Z,4.20
2022-09-06T23:01:24.605Z,4.63
2022-09-06T23:04:13.447Z,4.88
2022-09-06T23:07:02.635Z,5.10
2022-09-06T23:09:51.602Z,5.38
2022-09-06T23:12:41.610Z,5.50
2022-09-06T23:15:23.455Z,5.65
2022-09-06T23:18:11.608Z,5.53
2022-09-06T23:20:53.374Z,5.53
2022-09-06T23:23:49.480Z,6.30
2022-09-06T23:26:39.418Z,7.03
2022-09-06T23:29:22.629Z,7.20
2022-09-06T23:32:11.378Z,7.03
2022-09-06T23:34:53.484Z,8.35
2022-09-06T23:37:48.394Z,8.40
2022-09-06T23:40:37.450Z,8.15
2022-09-06T23:43:26.432Z,8.40
2022-09-06T23:46:17.672Z,8.38
2022-09-06T23:49:06.413Z,9.30
2022-09-06T23:52:01.397Z,9.80
2022-09-06T23:54:50.749Z,9.05
2022-09-06T23:57:38.635Z,9.55
